To NAV CANADA Home Page Login to a new session Search on AWWS site Feedback and Comments Disclaimer Vers la page française équivalente Tips FAQ What's new on the site To the Forecasts and Observations / NOTAM section To "File a Flight Plan" website Publications and other links Update of the User's profile FIC Telephone Numbers My Weather Data Folder Route Weather Data Regional Weather Data Local Weather Data To the Forecasts and Observations / NOTAM section
Request Generated 06/26/2017 at 22:33:07 UTC . Weather information available at that time is displayed.

METAR/TAF

GANDER/GANDER INTL/NL    

METAR CYQX 262200Z 30005KT 20SM -SHRA FEW055 BKN075 16/14 A2980 RMK
CU2AC5 VIS LWR NE-E SLP093 DENSITY ALT 900FT=
SPECI CYQX 262143Z 31010KT 20SM R03/5000VP6000FT/U -TSRA BKN044
BKN060CB BKN085 16/14 A2980 RMK SC5CB1AC1 VIS LWR E-SE SLP095
DENSITY ALT 900FT=
SPECI CYQX 262138Z 29010KT 20SM R03/5000VP6000FT/D -SHRA BKN052
OVC080 16/14 A2980 RMK SC7AC1 VIS E-S 10 CVCTV CLD EMBD SLP095
DENSITY ALT 900FT=
METAR CYQX 262100Z 32009G16KT 8SM -TSRA BKN055CB 17/14 A2977 RMK CB7
VIS E-S 20 OCNL LTGCG SW AC TR SLP085 DENSITY ALT 1100FT=
SPECI CYQX 262054Z 33011KT 4SM -TSRA BR BKN053CB 18/14 A2977 RMK CB7
VIS NE-SE 20 OCNL LTGCG SW AC TR SLP083 DENSITY ALT 1200FT=
SPECI CYQX 262043Z 32009KT 20SM -SHRA BKN055 BKN075 19/13 A2976 RMK
SC6CU1 VIS LWR W-NW SLP081 DENSITY ALT 1300FT=
METAR CYQX 262000Z 33011KT 20SM SCT085 BKN120 19/14 A2975 RMK CU4AC1
SH DIST W VIS LWR SLP079 DENSITY ALT 1300FT=

TAF AMD CYQX 262104Z 2621/2718 32012G22KT P6SM -SHRA SCT050 BKN080
TEMPO 2621/2622 2SM TSRA BR BKN020 OVC050CB
FM262200 30008KT P6SM SCT050 TEMPO 2622/2701 6SM -SHRA BR BKN040
BECMG 2622/2624 23008KT
FM270100 24008KT P6SM FEW020
FM271500 26012KT P6SM SCT080
RMK NXT FCST BY 270000Z=
Your time UTC time
Weather data provided by Environment Canada and NAV CANADA